sensor_id;sensor_type;location;lat;lon;timestamp;P1;durP1;ratioP1;P2;durP2;ratioP2
3133;SDS011;1577;49.912;10.924;2023-06-24T00:00:29;36.83;;;4.77;;
3133;SDS011;1577;49.912;10.924;2023-06-24T00:02:55;40.03;;;5.03;;
3133;SDS011;1577;49.912;10.924;2023-06-24T00:05:23;37.33;;;4.70;;
3133;SDS011;1577;49.912;10.924;2023-06-24T00:07:48;37.20;;;4.20;;
3133;SDS011;1577;49.912;10.924;2023-06-24T00:10:14;37.07;;;5.07;;
3133;SDS011;1577;49.912;10.924;2023-06-24T00:12:40;37.30;;;5.13;;
3133;SDS011;1577;49.912;10.924;2023-06-24T00:15:07;39.50;;;5.37;;
3133;SDS011;1577;49.912;10.924;2023-06-24T00:17:36;37.43;;;4.90;;
3133;SDS011;1577;49.912;10.924;2023-06-24T00:20:01;37.37;;;4.87;;
3133;SDS011;1577;49.912;10.924;2023-06-24T00:22:29;38.80;;;5.47;;
3133;SDS011;1577;49.912;10.924;2023-06-24T00:24:55;36.63;;;5.13;;
3133;SDS011;1577;49.912;10.924;2023-06-24T00:27:21;36.47;;;4.60;;
3133;SDS011;1577;49.912;10.924;2023-06-24T00:29:47;40.33;;;4.77;;
3133;SDS011;1577;49.912;10.924;2023-06-24T00:32:12;38.03;;;4.20;;
3133;SDS011;1577;49.912;10.924;2023-06-24T00:34:38;37.17;;;4.47;;
3133;SDS011;1577;49.912;10.924;2023-06-24T00:37:08;36.10;;;3.90;;
3133;SDS011;1577;49.912;10.924;2023-06-24T00:39:36;36.70;;;5.00;;
3133;SDS011;1577;49.912;10.924;2023-06-24T00:42:02;35.90;;;4.70;;
3133;SDS011;1577;49.912;10.924;2023-06-24T00:44:28;35.70;;;3.90;;
3133;SDS011;1577;49.912;10.924;2023-06-24T00:46:54;38.10;;;4.37;;
3133;SDS011;1577;49.912;10.924;2023-06-24T00:49:19;38.27;;;4.47;;
3133;SDS011;1577;49.912;10.924;2023-06-24T00:51:45;37.67;;;4.63;;
3133;SDS011;1577;49.912;10.924;2023-06-24T00:54:16;36.20;;;4.33;;
3133;SDS011;1577;49.912;10.924;2023-06-24T00:56:42;37.13;;;4.03;;
3133;SDS011;1577;49.912;10.924;2023-06-24T00:59:08;37.20;;;4.13;;
3133;SDS011;1577;49.912;10.924;2023-06-24T01:01:37;38.43;;;4.40;;
3133;SDS011;1577;49.912;10.924;2023-06-24T01:04:03;40.87;;;5.23;;
3133;SDS011;1577;49.912;10.924;2023-06-24T01:06:30;37.13;;;4.97;;
3133;SDS011;1577;49.912;10.924;2023-06-24T01:08:56;37.27;;;4.67;;
3133;SDS011;1577;49.912;10.924;2023-06-24T01:11:25;36.77;;;5.07;;
3133;SDS011;1577;49.912;10.924;2023-06-24T01:13:55;36.70;;;4.80;;
3133;SDS011;1577;49.912;10.924;2023-06-24T01:19:33;37.37;;;5.13;;
3133;SDS011;1577;49.912;10.924;2023-06-24T01:33:32;38.10;;;6.07;;
3133;SDS011;1577;49.912;10.924;2023-06-24T01:36:07;38.27;;;5.67;;
3133;SDS011;1577;49.912;10.924;2023-06-24T01:38:37;37.20;;;5.50;;
3133;SDS011;1577;49.912;10.924;2023-06-24T01:41:40;37.57;;;5.10;;
3133;SDS011;1577;49.912;10.924;2023-06-24T01:44:08;39.17;;;6.43;;
3133;SDS011;1577;49.912;10.924;2023-06-24T01:46:55;38.00;;;5.00;;
3133;SDS011;1577;49.912;10.924;2023-06-24T01:49:23;40.10;;;5.37;;
3133;SDS011;1577;49.912;10.924;2023-06-24T01:51:52;37.40;;;5.20;;
3133;SDS011;1577;49.912;10.924;2023-06-24T01:54:20;38.90;;;5.90;;
3133;SDS011;1577;49.912;10.924;2023-06-24T01:56:48;37.67;;;5.17;;
3133;SDS011;1577;49.912;10.924;2023-06-24T01:59:17;36.73;;;5.20;;
3133;SDS011;1577;49.912;10.924;2023-06-24T02:01:45;37.90;;;5.40;;
3133;SDS011;1577;49.912;10.924;2023-06-24T02:04:11;41.03;;;5.50;;
3133;SDS011;1577;49.912;10.924;2023-06-24T02:06:38;38.90;;;5.13;;
3133;SDS011;1577;49.912;10.924;2023-06-24T02:09:06;37.40;;;5.60;;
3133;SDS011;1577;49.912;10.924;2023-06-24T02:11:32;40.07;;;6.10;;
3133;SDS011;1577;49.912;10.924;2023-06-24T02:14:00;36.97;;;5.10;;
3133;SDS011;1577;49.912;10.924;2023-06-24T02:16:27;39.10;;;5.33;;
3133;SDS011;1577;49.912;10.924;2023-06-24T02:18:54;36.77;;;5.03;;
3133;SDS011;1577;49.912;10.924;2023-06-24T02:21:21;38.20;;;6.10;;
3133;SDS011;1577;49.912;10.924;2023-06-24T02:23:49;38.90;;;6.50;;
3133;SDS011;1577;49.912;10.924;2023-06-24T02:26:16;39.80;;;5.30;;
3133;SDS011;1577;49.912;10.924;2023-06-24T02:28:46;36.27;;;4.70;;
3133;SDS011;1577;49.912;10.924;2023-06-24T02:31:14;37.50;;;4.93;;
3133;SDS011;1577;49.912;10.924;2023-06-24T02:33:40;40.60;;;5.73;;
3133;SDS011;1577;49.912;10.924;2023-06-24T02:36:06;38.20;;;5.97;;
3133;SDS011;1577;49.912;10.924;2023-06-24T02:38:31;40.50;;;5.03;;
3133;SDS011;1577;49.912;10.924;2023-06-24T02:40:57;38.20;;;4.83;;
3133;SDS011;1577;49.912;10.924;2023-06-24T02:43:23;37.57;;;5.57;;
3133;SDS011;1577;49.912;10.924;2023-06-24T02:45:49;37.63;;;5.67;;
3133;SDS011;1577;49.912;10.924;2023-06-24T02:48:15;37.03;;;4.87;;
3133;SDS011;1577;49.912;10.924;2023-06-24T02:50:43;36.23;;;4.97;;
3133;SDS011;1577;49.912;10.924;2023-06-24T02:53:12;36.70;;;4.90;;
3133;SDS011;1577;49.912;10.924;2023-06-24T02:55:40;37.60;;;4.80;;
3133;SDS011;1577;49.912;10.924;2023-06-24T02:58:07;42.37;;;5.23;;
3133;SDS011;1577;49.912;10.924;2023-06-24T03:00:34;38.97;;;5.47;;
3133;SDS011;1577;49.912;10.924;2023-06-24T03:03:01;42.53;;;5.10;;
3133;SDS011;1577;49.912;10.924;2023-06-24T03:05:28;37.10;;;5.23;;
3133;SDS011;1577;49.912;10.924;2023-06-24T03:07:55;38.30;;;5.40;;
3133;SDS011;1577;49.912;10.924;2023-06-24T03:10:22;38.13;;;6.03;;
3133;SDS011;1577;49.912;10.924;2023-06-24T03:12:49;42.13;;;5.83;;
3133;SDS011;1577;49.912;10.924;2023-06-24T03:15:14;40.03;;;6.00;;
3133;SDS011;1577;49.912;10.924;2023-06-24T03:17:40;38.83;;;5.73;;
3133;SDS011;1577;49.912;10.924;2023-06-24T03:20:06;38.17;;;5.87;;
3133;SDS011;1577;49.912;10.924;2023-06-24T03:22:32;39.63;;;5.40;;
3133;SDS011;1577;49.912;10.924;2023-06-24T03:24:58;39.87;;;5.37;;
3133;SDS011;1577;49.912;10.924;2023-06-24T03:27:24;37.23;;;5.30;;
3133;SDS011;1577;49.912;10.924;2023-06-24T03:29:49;39.53;;;5.50;;
3133;SDS011;1577;49.912;10.924;2023-06-24T03:32:15;37.33;;;5.17;;
3133;SDS011;1577;49.912;10.924;2023-06-24T03:34:41;39.90;;;5.20;;
3133;SDS011;1577;49.912;10.924;2023-06-24T03:37:06;43.33;;;5.87;;
3133;SDS011;1577;49.912;10.924;2023-06-24T03:39:32;36.77;;;5.03;;
3133;SDS011;1577;49.912;10.924;2023-06-24T03:41:58;39.03;;;5.63;;
3133;SDS011;1577;49.912;10.924;2023-06-24T03:44:23;37.97;;;5.40;;
3133;SDS011;1577;49.912;10.924;2023-06-24T03:46:49;38.90;;;5.83;;
3133;SDS011;1577;49.912;10.924;2023-06-24T03:49:14;37.60;;;4.90;;
3133;SDS011;1577;49.912;10.924;2023-06-24T03:51:40;38.90;;;5.00;;
3133;SDS011;1577;49.912;10.924;2023-06-24T03:54:05;40.93;;;6.10;;
3133;SDS011;1577;49.912;10.924;2023-06-24T03:56:31;36.83;;;4.70;;
3133;SDS011;1577;49.912;10.924;2023-06-24T03:58:56;36.20;;;4.80;;
3133;SDS011;1577;49.912;10.924;2023-06-24T04:01:22;36.80;;;4.47;;
3133;SDS011;1577;49.912;10.924;2023-06-24T04:03:48;37.87;;;4.50;;
3133;SDS011;1577;49.912;10.924;2023-06-24T04:06:13;37.77;;;4.70;;
3133;SDS011;1577;49.912;10.924;2023-06-24T04:08:39;36.50;;;4.60;;
3133;SDS011;1577;49.912;10.924;2023-06-24T04:11:04;36.57;;;4.47;;
3133;SDS011;1577;49.912;10.924;2023-06-24T04:13:32;37.27;;;5.30;;
3133;SDS011;1577;49.912;10.924;2023-06-24T04:15:57;42.43;;;6.27;;
3133;SDS011;1577;49.912;10.924;2023-06-24T04:18:23;36.90;;;5.37;;
3133;SDS011;1577;49.912;10.924;2023-06-24T04:20:48;39.30;;;6.87;;
3133;SDS011;1577;49.912;10.924;2023-06-24T04:23:14;39.83;;;6.33;;
3133;SDS011;1577;49.912;10.924;2023-06-24T04:25:40;44.67;;;7.53;;
3133;SDS011;1577;49.912;10.924;2023-06-24T04:28:07;52.30;;;8.67;;
3133;SDS011;1577;49.912;10.924;2023-06-24T04:30:33;43.17;;;7.40;;
3133;SDS011;1577;49.912;10.924;2023-06-24T04:33:00;49.57;;;9.13;;
3133;SDS011;1577;49.912;10.924;2023-06-24T04:35:27;45.27;;;8.73;;
3133;SDS011;1577;49.912;10.924;2023-06-24T04:37:52;43.70;;;7.90;;
3133;SDS011;1577;49.912;10.924;2023-06-24T04:40:18;42.93;;;7.87;;
3133;SDS011;1577;49.912;10.924;2023-06-24T04:42:44;39.93;;;6.17;;
3133;SDS011;1577;49.912;10.924;2023-06-24T04:45:10;40.33;;;6.70;;
3133;SDS011;1577;49.912;10.924;2023-06-24T04:47:36;42.73;;;6.20;;
3133;SDS011;1577;49.912;10.924;2023-06-24T04:50:02;37.20;;;5.83;;
3133;SDS011;1577;49.912;10.924;2023-06-24T04:52:27;37.87;;;5.60;;
3133;SDS011;1577;49.912;10.924;2023-06-24T04:54:53;38.30;;;5.80;;
3133;SDS011;1577;49.912;10.924;2023-06-24T04:57:28;37.43;;;5.17;;
3133;SDS011;1577;49.912;10.924;2023-06-24T04:59:55;38.77;;;5.87;;
3133;SDS011;1577;49.912;10.924;2023-06-24T05:02:22;38.70;;;6.33;;
3133;SDS011;1577;49.912;10.924;2023-06-24T05:04:48;39.50;;;6.63;;
3133;SDS011;1577;49.912;10.924;2023-06-24T05:07:13;37.50;;;5.50;;
3133;SDS011;1577;49.912;10.924;2023-06-24T05:09:39;37.50;;;4.87;;
3133;SDS011;1577;49.912;10.924;2023-06-24T05:12:05;36.97;;;4.50;;
3133;SDS011;1577;49.912;10.924;2023-06-24T05:14:31;38.03;;;3.87;;
3133;SDS011;1577;49.912;10.924;2023-06-24T05:16:59;37.37;;;4.10;;
3133;SDS011;1577;49.912;10.924;2023-06-24T05:19:24;35.70;;;3.63;;
3133;SDS011;1577;49.912;10.924;2023-06-24T05:21:50;38.30;;;4.23;;
3133;SDS011;1577;49.912;10.924;2023-06-24T05:24:16;36.30;;;3.93;;
3133;SDS011;1577;49.912;10.924;2023-06-24T05:26:42;36.27;;;3.70;;
3133;SDS011;1577;49.912;10.924;2023-06-24T05:29:07;35.90;;;3.87;;
3133;SDS011;1577;49.912;10.924;2023-06-24T05:31:33;36.17;;;4.10;;
3133;SDS011;1577;49.912;10.924;2023-06-24T05:33:58;35.57;;;3.67;;
3133;SDS011;1577;49.912;10.924;2023-06-24T05:36:25;35.97;;;4.00;;
3133;SDS011;1577;49.912;10.924;2023-06-24T05:38:50;38.70;;;4.00;;
3133;SDS011;1577;49.912;10.924;2023-06-24T05:41:16;36.63;;;4.30;;
3133;SDS011;1577;49.912;10.924;2023-06-24T05:43:42;37.37;;;4.20;;
3133;SDS011;1577;49.912;10.924;2023-06-24T05:46:08;36.10;;;3.70;;
3133;SDS011;1577;49.912;10.924;2023-06-24T05:48:34;37.40;;;4.33;;
3133;SDS011;1577;49.912;10.924;2023-06-24T05:51:00;37.33;;;4.00;;
3133;SDS011;1577;49.912;10.924;2023-06-24T05:53:25;36.73;;;4.40;;
3133;SDS011;1577;49.912;10.924;2023-06-24T05:55:51;37.20;;;4.40;;
3133;SDS011;1577;49.912;10.924;2023-06-24T05:58:16;39.90;;;5.33;;
3133;SDS011;1577;49.912;10.924;2023-06-24T06:00:42;39.07;;;4.50;;
3133;SDS011;1577;49.912;10.924;2023-06-24T06:03:07;37.70;;;4.57;;
3133;SDS011;1577;49.912;10.924;2023-06-24T06:05:34;37.87;;;4.80;;
3133;SDS011;1577;49.912;10.924;2023-06-24T06:08:00;37.60;;;4.87;;
3133;SDS011;1577;49.912;10.924;2023-06-24T06:10:25;39.03;;;5.10;;
3133;SDS011;1577;49.912;10.924;2023-06-24T06:12:51;37.03;;;5.17;;
3133;SDS011;1577;49.912;10.924;2023-06-24T06:15:18;36.50;;;4.70;;
3133;SDS011;1577;49.912;10.924;2023-06-24T06:17:44;38.43;;;4.87;;
3133;SDS011;1577;49.912;10.924;2023-06-24T06:20:10;37.10;;;4.73;;
3133;SDS011;1577;49.912;10.924;2023-06-24T06:22:36;36.20;;;4.60;;
3133;SDS011;1577;49.912;10.924;2023-06-24T06:25:06;37.10;;;4.73;;
3133;SDS011;1577;49.912;10.924;2023-06-24T06:27:32;39.60;;;4.70;;
3133;SDS011;1577;49.912;10.924;2023-06-24T06:29:57;36.07;;;4.20;;
3133;SDS011;1577;49.912;10.924;2023-06-24T06:32:23;36.80;;;4.93;;
3133;SDS011;1577;49.912;10.924;2023-06-24T06:34:49;37.07;;;4.20;;
3133;SDS011;1577;49.912;10.924;2023-06-24T06:37:14;35.30;;;3.60;;
3133;SDS011;1577;49.912;10.924;2023-06-24T06:39:40;36.93;;;3.67;;
3133;SDS011;1577;49.912;10.924;2023-06-24T06:42:09;35.93;;;3.10;;
3133;SDS011;1577;49.912;10.924;2023-06-24T06:44:35;36.00;;;2.90;;
3133;SDS011;1577;49.912;10.924;2023-06-24T06:47:01;37.83;;;2.70;;
3133;SDS011;1577;49.912;10.924;2023-06-24T06:49:29;36.37;;;2.70;;
3133;SDS011;1577;49.912;10.924;2023-06-24T06:51:55;36.43;;;3.07;;
3133;SDS011;1577;49.912;10.924;2023-06-24T06:54:20;36.70;;;3.07;;
3133;SDS011;1577;49.912;10.924;2023-06-24T06:56:46;36.37;;;2.50;;
3133;SDS011;1577;49.912;10.924;2023-06-24T06:59:11;35.67;;;2.80;;
3133;SDS011;1577;49.912;10.924;2023-06-24T07:01:37;35.97;;;2.53;;
3133;SDS011;1577;49.912;10.924;2023-06-24T07:04:03;35.60;;;2.53;;
3133;SDS011;1577;49.912;10.924;2023-06-24T07:06:28;36.90;;;2.80;;
3133;SDS011;1577;49.912;10.924;2023-06-24T07:08:54;35.77;;;2.47;;
3133;SDS011;1577;49.912;10.924;2023-06-24T07:11:19;35.27;;;2.53;;
3133;SDS011;1577;49.912;10.924;2023-06-24T07:13:45;35.13;;;2.60;;
3133;SDS011;1577;49.912;10.924;2023-06-24T07:16:11;33.87;;;1.90;;
3133;SDS011;1577;49.912;10.924;2023-06-24T07:18:36;35.13;;;2.90;;
3133;SDS011;1577;49.912;10.924;2023-06-24T07:21:02;33.30;;;2.43;;
3133;SDS011;1577;49.912;10.924;2023-06-24T07:23:27;34.70;;;2.40;;
3133;SDS011;1577;49.912;10.924;2023-06-24T07:25:53;33.50;;;2.23;;
3133;SDS011;1577;49.912;10.924;2023-06-24T07:28:19;32.97;;;2.13;;
3133;SDS011;1577;49.912;10.924;2023-06-24T07:30:45;33.93;;;2.50;;
3133;SDS011;1577;49.912;10.924;2023-06-24T07:33:11;33.87;;;2.60;;
3133;SDS011;1577;49.912;10.924;2023-06-24T07:35:36;33.87;;;2.53;;
3133;SDS011;1577;49.912;10.924;2023-06-24T07:38:02;35.97;;;2.47;;
3133;SDS011;1577;49.912;10.924;2023-06-24T07:40:27;35.37;;;2.87;;
3133;SDS011;1577;49.912;10.924;2023-06-24T07:42:53;33.60;;;2.20;;
3133;SDS011;1577;49.912;10.924;2023-06-24T07:45:19;34.50;;;2.70;;
3133;SDS011;1577;49.912;10.924;2023-06-24T07:47:44;33.53;;;2.27;;
3133;SDS011;1577;49.912;10.924;2023-06-24T07:50:10;33.77;;;2.17;;
3133;SDS011;1577;49.912;10.924;2023-06-24T07:52:36;34.97;;;2.00;;
3133;SDS011;1577;49.912;10.924;2023-06-24T07:55:02;34.47;;;2.40;;
3133;SDS011;1577;49.912;10.924;2023-06-24T07:57:28;34.83;;;2.43;;
3133;SDS011;1577;49.912;10.924;2023-06-24T07:59:54;34.17;;;2.30;;
3133;SDS011;1577;49.912;10.924;2023-06-24T08:02:20;34.30;;;2.40;;
3133;SDS011;1577;49.912;10.924;2023-06-24T08:04:46;33.53;;;2.40;;
3133;SDS011;1577;49.912;10.924;2023-06-24T08:07:11;34.03;;;2.60;;
3133;SDS011;1577;49.912;10.924;2023-06-24T08:09:37;33.77;;;2.27;;
3133;SDS011;1577;49.912;10.924;2023-06-24T08:12:03;34.63;;;2.77;;
3133;SDS011;1577;49.912;10.924;2023-06-24T08:14:28;34.00;;;2.60;;
3133;SDS011;1577;49.912;10.924;2023-06-24T08:16:54;33.23;;;2.33;;
3133;SDS011;1577;49.912;10.924;2023-06-24T08:19:20;33.43;;;2.20;;
3133;SDS011;1577;49.912;10.924;2023-06-24T08:21:45;33.80;;;2.60;;
3133;SDS011;1577;49.912;10.924;2023-06-24T08:24:11;33.80;;;2.27;;
3133;SDS011;1577;49.912;10.924;2023-06-24T08:26:36;34.43;;;2.33;;
3133;SDS011;1577;49.912;10.924;2023-06-24T08:29:02;34.07;;;2.50;;
3133;SDS011;1577;49.912;10.924;2023-06-24T08:31:28;35.03;;;2.30;;
3133;SDS011;1577;49.912;10.924;2023-06-24T08:33:54;33.90;;;2.10;;
3133;SDS011;1577;49.912;10.924;2023-06-24T08:36:23;35.10;;;2.57;;
3133;SDS011;1577;49.912;10.924;2023-06-24T08:38:51;33.70;;;2.30;;
3133;SDS011;1577;49.912;10.924;2023-06-24T08:41:17;34.10;;;1.83;;
3133;SDS011;1577;49.912;10.924;2023-06-24T08:43:42;33.83;;;2.30;;
3133;SDS011;1577;49.912;10.924;2023-06-24T08:46:08;34.10;;;2.00;;
3133;SDS011;1577;49.912;10.924;2023-06-24T08:48:34;34.37;;;2.00;;
3133;SDS011;1577;49.912;10.924;2023-06-24T08:51:05;34.63;;;2.50;;
3133;SDS011;1577;49.912;10.924;2023-06-24T08:53:33;34.50;;;2.00;;
3133;SDS011;1577;49.912;10.924;2023-06-24T08:56:00;34.00;;;1.97;;
3133;SDS011;1577;49.912;10.924;2023-06-24T08:58:26;34.47;;;1.80;;
3133;SDS011;1577;49.912;10.924;2023-06-24T09:00:52;34.90;;;2.00;;
3133;SDS011;1577;49.912;10.924;2023-06-24T09:03:18;35.30;;;1.73;;
3133;SDS011;1577;49.912;10.924;2023-06-24T09:05:44;34.27;;;1.90;;
3133;SDS011;1577;49.912;10.924;2023-06-24T09:08:10;34.70;;;1.67;;
3133;SDS011;1577;49.912;10.924;2023-06-24T09:10:36;33.80;;;1.60;;
3133;SDS011;1577;49.912;10.924;2023-06-24T09:13:03;34.00;;;1.70;;
3133;SDS011;1577;49.912;10.924;2023-06-24T09:15:33;34.37;;;1.90;;
3133;SDS011;1577;49.912;10.924;2023-06-24T09:18:02;39.30;;;1.60;;
3133;SDS011;1577;49.912;10.924;2023-06-24T09:20:29;34.17;;;1.67;;
3133;SDS011;1577;49.912;10.924;2023-06-24T09:22:59;34.90;;;2.17;;
3133;SDS011;1577;49.912;10.924;2023-06-24T09:25:26;34.63;;;1.60;;
3133;SDS011;1577;49.912;10.924;2023-06-24T09:27:52;34.90;;;1.67;;
3133;SDS011;1577;49.912;10.924;2023-06-24T09:32:47;34.57;;;1.90;;
3133;SDS011;1577;49.912;10.924;2023-06-24T09:35:14;34.57;;;1.60;;
3133;SDS011;1577;49.912;10.924;2023-06-24T09:37:42;34.70;;;1.80;;
3133;SDS011;1577;49.912;10.924;2023-06-24T09:40:08;34.53;;;1.77;;
3133;SDS011;1577;49.912;10.924;2023-06-24T09:42:35;34.67;;;1.83;;
3133;SDS011;1577;49.912;10.924;2023-06-24T09:45:04;34.70;;;2.20;;
3133;SDS011;1577;49.912;10.924;2023-06-24T09:47:30;34.37;;;1.87;;
3133;SDS011;1577;49.912;10.924;2023-06-24T09:49:56;34.17;;;1.73;;
3133;SDS011;1577;49.912;10.924;2023-06-24T09:52:22;34.80;;;1.97;;
3133;SDS011;1577;49.912;10.924;2023-06-24T09:54:50;34.20;;;1.90;;
3133;SDS011;1577;49.912;10.924;2023-06-24T09:57:18;34.40;;;1.90;;
3133;SDS011;1577;49.912;10.924;2023-06-24T09:59:56;35.40;;;2.20;;
3133;SDS011;1577;49.912;10.924;2023-06-24T10:02:23;34.83;;;2.33;;
3133;SDS011;1577;49.912;10.924;2023-06-24T10:04:49;34.60;;;2.20;;
3133;SDS011;1577;49.912;10.924;2023-06-24T10:07:15;34.20;;;2.00;;
3133;SDS011;1577;49.912;10.924;2023-06-24T10:09:42;34.23;;;2.00;;
3133;SDS011;1577;49.912;10.924;2023-06-24T10:12:08;33.73;;;2.20;;
3133;SDS011;1577;49.912;10.924;2023-06-24T10:14:34;35.27;;;2.10;;
3133;SDS011;1577;49.912;10.924;2023-06-24T10:17:01;34.27;;;1.97;;
3133;SDS011;1577;49.912;10.924;2023-06-24T10:19:30;34.53;;;2.03;;
3133;SDS011;1577;49.912;10.924;2023-06-24T10:22:02;35.77;;;2.17;;
3133;SDS011;1577;49.912;10.924;2023-06-24T10:24:28;36.00;;;2.20;;
3133;SDS011;1577;49.912;10.924;2023-06-24T10:27:01;35.60;;;2.50;;
3133;SDS011;1577;49.912;10.924;2023-06-24T10:29:50;34.90;;;2.00;;
3133;SDS011;1577;49.912;10.924;2023-06-24T10:32:19;34.43;;;1.97;;
3133;SDS011;1577;49.912;10.924;2023-06-24T10:34:48;34.70;;;2.23;;
3133;SDS011;1577;49.912;10.924;2023-06-24T10:37:22;35.90;;;2.30;;
3133;SDS011;1577;49.912;10.924;2023-06-24T10:39:56;35.27;;;2.10;;
3133;SDS011;1577;49.912;10.924;2023-06-24T10:44:52;34.27;;;1.87;;
3133;SDS011;1577;49.912;10.924;2023-06-24T10:47:19;33.50;;;1.40;;
3133;SDS011;1577;49.912;10.924;2023-06-24T10:49:46;34.00;;;1.53;;
3133;SDS011;1577;49.912;10.924;2023-06-24T10:52:12;33.20;;;1.63;;
3133;SDS011;1577;49.912;10.924;2023-06-24T10:54:38;34.20;;;1.60;;
3133;SDS011;1577;49.912;10.924;2023-06-24T10:57:06;34.37;;;1.60;;
3133;SDS011;1577;49.912;10.924;2023-06-24T10:59:42;34.87;;;1.80;;
3133;SDS011;1577;49.912;10.924;2023-06-24T11:02:15;35.47;;;1.63;;
3133;SDS011;1577;49.912;10.924;2023-06-24T11:04:53;34.50;;;1.87;;
3133;SDS011;1577;49.912;10.924;2023-06-24T11:07:23;34.00;;;1.67;;
3133;SDS011;1577;49.912;10.924;2023-06-24T11:09:50;34.23;;;2.00;;
3133;SDS011;1577;49.912;10.924;2023-06-24T11:12:26;34.63;;;1.97;;
3133;SDS011;1577;49.912;10.924;2023-06-24T11:15:00;34.50;;;2.10;;
3133;SDS011;1577;49.912;10.924;2023-06-24T11:17:30;35.10;;;2.13;;
3133;SDS011;1577;49.912;10.924;2023-06-24T11:19:56;35.07;;;1.93;;
3133;SDS011;1577;49.912;10.924;2023-06-24T11:22:23;34.00;;;2.03;;
3133;SDS011;1577;49.912;10.924;2023-06-24T11:24:50;34.67;;;1.70;;
3133;SDS011;1577;49.912;10.924;2023-06-24T11:27:16;34.30;;;1.87;;
3133;SDS011;1577;49.912;10.924;2023-06-24T11:29:48;38.20;;;2.30;;
3133;SDS011;1577;49.912;10.924;2023-06-24T11:32:16;34.87;;;2.13;;
3133;SDS011;1577;49.912;10.924;2023-06-24T11:34:41;33.87;;;1.90;;
3133;SDS011;1577;49.912;10.924;2023-06-24T11:37:13;33.80;;;1.97;;
3133;SDS011;1577;49.912;10.924;2023-06-24T11:39:40;33.83;;;1.87;;
3133;SDS011;1577;49.912;10.924;2023-06-24T11:42:09;36.87;;;2.83;;
3133;SDS011;1577;49.912;10.924;2023-06-24T11:44:35;33.57;;;1.57;;
3133;SDS011;1577;49.912;10.924;2023-06-24T11:47:07;33.87;;;1.80;;
3133;SDS011;1577;49.912;10.924;2023-06-24T11:49:50;35.83;;;2.07;;
3133;SDS011;1577;49.912;10.924;2023-06-24T11:52:19;34.10;;;1.97;;
3133;SDS011;1577;49.912;10.924;2023-06-24T11:55:23;34.20;;;1.93;;
3133;SDS011;1577;49.912;10.924;2023-06-24T11:57:57;36.70;;;2.10;;
3133;SDS011;1577;49.912;10.924;2023-06-24T12:00:31;34.03;;;1.83;;
3133;SDS011;1577;49.912;10.924;2023-06-24T12:03:02;34.17;;;1.80;;
3133;SDS011;1577;49.912;10.924;2023-06-24T12:05:30;34.47;;;1.93;;
3133;SDS011;1577;49.912;10.924;2023-06-24T12:07:57;33.60;;;1.60;;
3133;SDS011;1577;49.912;10.924;2023-06-24T12:10:24;35.07;;;2.07;;
3133;SDS011;1577;49.912;10.924;2023-06-24T12:12:50;33.90;;;1.90;;
3133;SDS011;1577;49.912;10.924;2023-06-24T12:15:16;33.80;;;2.00;;
3133;SDS011;1577;49.912;10.924;2023-06-24T12:17:41;34.70;;;2.60;;
3133;SDS011;1577;49.912;10.924;2023-06-24T12:20:07;33.70;;;1.90;;
3133;SDS011;1577;49.912;10.924;2023-06-24T12:22:34;33.90;;;2.00;;
3133;SDS011;1577;49.912;10.924;2023-06-24T12:25:00;34.47;;;1.67;;
3133;SDS011;1577;49.912;10.924;2023-06-24T12:27:26;34.00;;;1.80;;
3133;SDS011;1577;49.912;10.924;2023-06-24T12:29:51;33.30;;;1.73;;
3133;SDS011;1577;49.912;10.924;2023-06-24T12:32:18;34.17;;;2.00;;
3133;SDS011;1577;49.912;10.924;2023-06-24T12:34:44;33.80;;;1.87;;
3133;SDS011;1577;49.912;10.924;2023-06-24T12:37:09;33.73;;;1.80;;
3133;SDS011;1577;49.912;10.924;2023-06-24T12:39:35;34.03;;;1.93;;
3133;SDS011;1577;49.912;10.924;2023-06-24T12:42:00;34.80;;;1.93;;
3133;SDS011;1577;49.912;10.924;2023-06-24T12:44:26;34.80;;;1.80;;
3133;SDS011;1577;49.912;10.924;2023-06-24T12:46:52;33.70;;;1.70;;
3133;SDS011;1577;49.912;10.924;2023-06-24T12:49:17;34.27;;;1.80;;
3133;SDS011;1577;49.912;10.924;2023-06-24T12:51:43;34.73;;;2.03;;
3133;SDS011;1577;49.912;10.924;2023-06-24T12:54:09;34.00;;;1.80;;
3133;SDS011;1577;49.912;10.924;2023-06-24T12:56:34;33.67;;;1.90;;
3133;SDS011;1577;49.912;10.924;2023-06-24T12:59:00;34.60;;;1.80;;
3133;SDS011;1577;49.912;10.924;2023-06-24T13:01:25;34.00;;;1.70;;
3133;SDS011;1577;49.912;10.924;2023-06-24T13:03:51;33.43;;;1.47;;
3133;SDS011;1577;49.912;10.924;2023-06-24T13:06:16;33.20;;;1.67;;
3133;SDS011;1577;49.912;10.924;2023-06-24T13:08:42;33.30;;;1.60;;
3133;SDS011;1577;49.912;10.924;2023-06-24T13:11:08;33.67;;;1.97;;
3133;SDS011;1577;49.912;10.924;2023-06-24T13:13:34;33.47;;;1.80;;
3133;SDS011;1577;49.912;10.924;2023-06-24T13:15:59;35.83;;;2.10;;
3133;SDS011;1577;49.912;10.924;2023-06-24T13:18:25;33.73;;;1.60;;
3133;SDS011;1577;49.912;10.924;2023-06-24T13:20:50;34.30;;;1.73;;
3133;SDS011;1577;49.912;10.924;2023-06-24T13:23:16;33.00;;;1.60;;
3133;SDS011;1577;49.912;10.924;2023-06-24T13:25:42;33.47;;;1.73;;
3133;SDS011;1577;49.912;10.924;2023-06-24T13:28:07;34.37;;;2.20;;
3133;SDS011;1577;49.912;10.924;2023-06-24T13:30:33;34.10;;;2.10;;
3133;SDS011;1577;49.912;10.924;2023-06-24T13:32:58;33.80;;;2.10;;
3133;SDS011;1577;49.912;10.924;2023-06-24T13:35:24;34.07;;;2.00;;
3133;SDS011;1577;49.912;10.924;2023-06-24T13:37:49;35.00;;;1.90;;
3133;SDS011;1577;49.912;10.924;2023-06-24T13:40:15;36.00;;;2.00;;
3133;SDS011;1577;49.912;10.924;2023-06-24T13:42:41;34.60;;;1.90;;
3133;SDS011;1577;49.912;10.924;2023-06-24T13:45:07;33.30;;;1.70;;
3133;SDS011;1577;49.912;10.924;2023-06-24T13:47:32;33.57;;;1.80;;
3133;SDS011;1577;49.912;10.924;2023-06-24T13:49:58;33.20;;;1.60;;
3133;SDS011;1577;49.912;10.924;2023-06-24T13:52:25;33.37;;;1.80;;
3133;SDS011;1577;49.912;10.924;2023-06-24T13:54:51;33.60;;;1.90;;
3133;SDS011;1577;49.912;10.924;2023-06-24T13:57:17;33.90;;;1.63;;
3133;SDS011;1577;49.912;10.924;2023-06-24T13:59:43;33.90;;;2.00;;
3133;SDS011;1577;49.912;10.924;2023-06-24T14:02:08;33.30;;;1.50;;
3133;SDS011;1577;49.912;10.924;2023-06-24T14:04:34;34.10;;;1.80;;
3133;SDS011;1577;49.912;10.924;2023-06-24T14:07:00;34.70;;;1.80;;
3133;SDS011;1577;49.912;10.924;2023-06-24T14:09:27;33.70;;;2.00;;
3133;SDS011;1577;49.912;10.924;2023-06-24T14:11:53;33.80;;;1.80;;
3133;SDS011;1577;49.912;10.924;2023-06-24T14:14:20;33.20;;;1.70;;
3133;SDS011;1577;49.912;10.924;2023-06-24T14:16:46;33.60;;;1.57;;
3133;SDS011;1577;49.912;10.924;2023-06-24T14:19:12;33.70;;;1.77;;
3133;SDS011;1577;49.912;10.924;2023-06-24T14:21:37;33.40;;;1.40;;
3133;SDS011;1577;49.912;10.924;2023-06-24T14:24:04;33.40;;;1.60;;
3133;SDS011;1577;49.912;10.924;2023-06-24T14:26:30;33.47;;;1.90;;
3133;SDS011;1577;49.912;10.924;2023-06-24T14:28:55;34.33;;;2.10;;
3133;SDS011;1577;49.912;10.924;2023-06-24T14:31:21;35.50;;;2.40;;
3133;SDS011;1577;49.912;10.924;2023-06-24T14:33:47;33.80;;;2.00;;
3133;SDS011;1577;49.912;10.924;2023-06-24T14:36:12;33.67;;;2.07;;
3133;SDS011;1577;49.912;10.924;2023-06-24T14:38:38;35.80;;;1.90;;
3133;SDS011;1577;49.912;10.924;2023-06-24T14:41:03;33.67;;;1.80;;
3133;SDS011;1577;49.912;10.924;2023-06-24T14:43:29;33.80;;;2.00;;
3133;SDS011;1577;49.912;10.924;2023-06-24T14:45:54;34.90;;;1.60;;
3133;SDS011;1577;49.912;10.924;2023-06-24T14:48:22;33.50;;;1.83;;
3133;SDS011;1577;49.912;10.924;2023-06-24T14:50:48;33.60;;;1.90;;
3133;SDS011;1577;49.912;10.924;2023-06-24T14:53:13;35.60;;;1.70;;
3133;SDS011;1577;49.912;10.924;2023-06-24T14:55:39;33.37;;;1.83;;
3133;SDS011;1577;49.912;10.924;2023-06-24T14:58:04;33.33;;;1.80;;
3133;SDS011;1577;49.912;10.924;2023-06-24T15:00:30;33.60;;;1.80;;
3133;SDS011;1577;49.912;10.924;2023-06-24T15:02:56;34.57;;;2.40;;
3133;SDS011;1577;49.912;10.924;2023-06-24T15:05:21;33.50;;;1.77;;